x

8454049 - Quonset Point, Ri (qptr1) Weather Station

2:54 - Sat 10th Dec 2016 All times are EST. -5 hours from GMT.

  • Wind
    5mph, 7mph gusts
  • Sea Temp 44°f
  • Luft Temp 25°f
  • Sea Pressure 1024.5mb
  • 8454049 - Quonset Point, Ri
  • 8454049 - Quonset Point, Ri

More Historic Weather Station data

Upgrade to MSW Pro to gain access to the past 30 days of data for over 8000 Wavebouys and Weather Stations around the globe.

Join Pro

Comparision Forecast

View Surf forecast
   
Sa 12/10 2:54 5 7 mph 1024.5mb 44f 25f
2:48 6 7 mph 1024.4mb 44f 25f
2:42 6 8 mph 1024.3mb 44f 25f
2:36 6 9 mph 1024.2mb 44f 25f
2:30 8 9 mph 1024mb 44f 25f
2:24 7 9 mph 1023.7mb 44f 25f
2:18 8 9 mph 1023.6mb 44f 25f
2:12 6 8 mph 1023.7mb 44f 25f
2:06 8 11 mph 1023.8mb 44f 25f
2:00 7 9 mph 1023.7mb 44f 25f
1:54 6 9 mph 1023.5mb 44f 25f
1:48 7 9 mph 1023.4mb 44f 25f
1:42 6 8 mph 1023.4mb 45f 25f
1:36 7 9 mph 1023.4mb 45f 25f
1:30 6 9 mph 1023.4mb 45f 26f
1:24 6 10 mph 1023.4mb 45f 26f
1:18 7 10 mph 1023.4mb 45f 26f
1:12 6 8 mph 1023.5mb 45f 26f
1:06 6 9 mph 1023.5mb 45f 26f
1:00 6 9 mph 1023.5mb 45f 26f
12:54 6 10 mph 1023.4mb 45f 26f
12:48 6 8 mph 1023.4mb 45f 26f
12:42 6 10 mph 1023.3mb - -
12:36 7 9 mph 1023.3mb - -
12:30 7 9 mph 1023.3mb - -
12:24 6 7 mph 1023.3mb 45f 27f
12:18 6 7 mph 1023.3mb 45f 27f
12:12 6 8 mph 1023.2mb 45f 26f
12:06 6 8 mph 1023.2mb 45f 27f
12:00 6 9 mph 1023.2mb 45f 27f
Fr 12/09 11:54 7 9 mph 1023.2mb 45f 27f
11:48 7 10 mph 1023.2mb 45f 27f
11:42 7 13 mph 1023.2mb 45f 27f
11:36 8 11 mph 1023.2mb 45f 27f
11:30 7 9 mph 1023.2mb - -
11:24 6 9 mph 1023.2mb 45f 28f
11:18 9 13 mph 1023.2mb 45f 28f
11:12 9 13 mph 1023mb 45f 28f
11:06 8 15 mph 1023.1mb 45f 28f
11:00 10 20 mph 1023.1mb 45f 28f
10:54 13 15 mph 1023mb 45f 28f
10:48 10 16 mph - - -
10:42 11 15 mph 1022.8mb 46f 28f
10:36 10 17 mph 1022.8mb 46f 28f
10:30 10 14 mph 1022.7mb 46f 28f
10:24 8 10 mph 1022.7mb 46f 28f
10:18 9 15 mph 1022.6mb 46f 28f
10:12 10 17 mph 1022.7mb 46f 28f
10:06 11 18 mph 1022.6mb 46f 28f
10:00 11 16 mph 1022.6mb 46f 28f
9:54 9 14 mph 1022.5mb 46f 28f
9:48 13 16 mph 1022.6mb 46f 28f
9:42 13 18 mph 1022.6mb 46f 28f
9:36 11 16 mph 1022.5mb 46f 28f
9:30 10 14 mph 1022.5mb 46f 29f
9:24 13 16 mph 1022.4mb 46f 29f
9:18 11 16 mph 1022.4mb 46f 29f
9:12 9 14 mph 1022.4mb 46f 28f
9:06 11 17 mph 1022.4mb 46f 29f
9:00 14 18 mph 1022.4mb 46f 29f
8:54 9 17 mph 1022.3mb 46f 29f
8:48 14 17 mph - - -
8:42 9 16 mph 1022.2mb 46f 29f
8:36 10 17 mph 1022.3mb 46f 29f
8:30 10 17 mph 1022.2mb 46f 29f
8:24 10 21 mph 1022.1mb 46f 29f
8:18 14 21 mph 1022mb 46f 29f
8:12 13 20 mph 1022mb 46f 29f
8:06 11 21 mph 1022mb 46f 30f
8:00 10 15 mph 1021.9mb 46f 29f
7:54 13 17 mph 1021.8mb 46f 30f
7:48 11 21 mph 1021.7mb 46f 30f
7:42 15 24 mph 1021.6mb 46f 30f
7:36 14 20 mph 1021.4mb 46f 30f
7:30 14 21 mph 1021.4mb 46f 30f
7:24 10 15 mph 1021.4mb 46f 30f
7:18 9 18 mph - - -
7:12 13 21 mph 1021mb 46f 30f
7:06 14 22 mph 1020.9mb 46f 31f
7:00 14 17 mph 1020.9mb 46f 31f
6:54 14 21 mph 1020.8mb 46f 31f
6:48 13 22 mph - - -
6:42 21 26 mph 1020.2mb 46f 31f
6:36 16 22 mph 1020.1mb 46f 31f
6:30 18 25 mph 1020.2mb 46f 32f
6:24 14 21 mph 1020.1mb 46f 32f
6:18 14 18 mph - - -
6:12 11 21 mph 1019.8mb 46f 32f
6:06 15 23 mph 1019.5mb 46f 32f
6:00 16 24 mph 1019.4mb 46f 32f
5:54 16 21 mph 1019.4mb 45f 32f
5:48 10 15 mph 1019.4mb 46f 33f
5:42 9 13 mph 1019.2mb 45f 33f
5:36 9 11 mph 1019.1mb 45f 33f
5:30 6 8 mph 1019mb 45f 33f
5:24 9 11 mph 1019mb 45f 33f
5:18 9 15 mph - - -
5:12 11 22 mph 1018.7mb 45f 33f
5:06 14 17 mph 1018.5mb 45f 33f
5:00 8 13 mph 1018.5mb 45f 33f
4:54 6 10 mph 1018.5mb 45f 33f
4:48 7 13 mph - - -
4:42 13 18 mph 1018.2mb 45f 34f
4:36 10 17 mph 1018.1mb 45f 34f
4:30 14 21 mph 1018.1mb 45f 34f
4:24 11 18 mph 1018mb 45f 34f
4:18 13 20 mph 1017.8mb 45f 34f
4:12 9 18 mph 1017.7mb 45f 35f
4:06 13 17 mph 1017.5mb 45f 35f
4:00 11 17 mph 1017.3mb 45f 35f
3:54 13 22 mph 1017.2mb 45f 35f
3:48 15 20 mph 1017mb 45f 35f
3:42 15 20 mph 1016.9mb 45f 35f
3:36 13 24 mph 1016.8mb 45f 35f
3:30 16 24 mph 1016.7mb 45f 35f
3:24 18 23 mph 1016.5mb 45f 35f
3:18 15 25 mph 1016.6mb 45f 35f
3:12 16 24 mph 1016.5mb 45f 36f
3:06 15 22 mph 1016.6mb 45f 36f
3:00 17 24 mph 1016.4mb 45f 36f
2:54 22 32 mph 1016.2mb 45f 36f
2:48 16 24 mph 1016.2mb 45f 36f
2:42 20 28 mph 1016.1mb 45f 36f
2:36 16 26 mph 1016mb 45f 36f
2:30 22 30 mph 1015.9mb 45f 36f
2:24 18 29 mph 1016mb 45f 36f
2:18 18 29 mph 1015.9mb 45f 36f
2:12 18 24 mph 1015.8mb 45f 36f
2:06 20 25 mph 1015.7mb 45f 36f
2:00 16 28 mph 1015.7mb 46f 36f
1:54 20 28 mph 1015.6mb 46f 36f
1:48 18 24 mph 1015.6mb 46f 36f
1:42 20 25 mph 1015.5mb 46f 36f
1:36 20 26 mph 1015.5mb 46f 36f
1:30 21 29 mph 1015.3mb 46f 36f
1:24 17 24 mph 1015.4mb 46f 37f
1:18 18 24 mph 1015.2mb 46f 36f
1:12 17 23 mph 1015.2mb 46f 37f
1:06 16 22 mph 1015.3mb 46f 36f
1:00 14 22 mph 1015.2mb 46f 37f
12:54 16 26 mph 1015.2mb 46f 37f
12:48 17 26 mph 1015.1mb 46f 36f
12:42 16 25 mph 1015.2mb 46f 36f
12:36 13 21 mph 1015.3mb 46f 37f
12:30 15 23 mph 1015.3mb 46f 37f
12:24 18 24 mph 1015.2mb 46f 36f
12:18 17 32 mph 1015.1mb 46f 36f
12:12 20 28 mph 1015.1mb 46f 36f
12:06 16 26 mph 1015.1mb 46f 36f
12:00 22 30 mph 1015.2mb - -
11:54 17 26 mph 1015.4mb 46f 36f
11:48 17 25 mph 1015.4mb 46f 37f
11:42 18 28 mph 1015.5mb 46f 36f
11:36 17 29 mph 1015.6mb 46f 37f
11:30 22 29 mph 1015.6mb 46f 36f
11:24 18 24 mph 1015.6mb 46f 36f
11:18 18 25 mph 1015.7mb 46f 36f
11:12 21 28 mph 1015.8mb 46f 36f
11:06 16 23 mph 1015.8mb 46f 36f
11:00 17 28 mph 1015.8mb - -
10:54 16 24 mph 1015.9mb 46f 36f
10:48 16 22 mph 1015.8mb 46f 36f
10:42 13 21 mph 1015.9mb 46f 36f
10:36 16 24 mph 1015.9mb 46f 36f
10:30 14 25 mph 1015.9mb 46f 36f
10:24 13 23 mph 1016mb 46f 36f
10:18 18 31 mph 1015.9mb 46f 35f
10:12 23 28 mph 1015.8mb 46f 35f
10:06 18 28 mph 1015.7mb 46f 35f
10:00 21 33 mph 1015.6mb 46f -
9:54 20 30 mph 1015.6mb 46f 35f
9:48 21 26 mph 1015.6mb 46f 35f
9:42 17 25 mph 1015.7mb 46f 35f
9:36 23 30 mph 1015.7mb 46f 35f
9:30 15 23 mph 1015.7mb 46f 35f
9:24 20 26 mph 1015.6mb 46f 35f
9:18 18 22 mph 1015.7mb 46f 35f
9:12 14 20 mph 1015.7mb 46f 35f
9:06 15 22 mph 1015.6mb 46f 35f
9:00 14 21 mph 1015.5mb - -
8:54 14 18 mph 1015.5mb 46f 35f
8:48 10 17 mph 1015.4mb 46f 35f
8:42 9 17 mph 1015.3mb 46f 34f
8:36 11 14 mph 1015.2mb 46f 34f
8:30 10 17 mph 1015.1mb 46f 34f
8:24 9 17 mph 1015mb 46f 34f
8:18 10 16 mph 1014.9mb 46f 34f
8:12 11 17 mph 1014.9mb 46f 34f
8:06 11 18 mph 1014.8mb 46f 34f
8:00 13 18 mph 1014.7mb 46f -
7:54 13 16 mph 1014.7mb 46f 33f
7:48 14 18 mph 1014.7mb 46f 33f
7:42 14 18 mph 1014.7mb 46f 33f
7:36 11 17 mph 1014.6mb 46f 33f
7:30 14 16 mph 1014.5mb 46f 33f
7:24 15 18 mph 1014.4mb 46f 33f
7:18 13 15 mph 1014.3mb 46f 33f
7:12 13 16 mph 1014.3mb 46f 33f
7:06 15 20 mph 1014.1mb 46f 33f
7:00 13 16 mph 1014.1mb - -
6:54 13 16 mph 1014.2mb 46f 33f
6:48 14 17 mph 1014mb 46f 32f
6:42 14 16 mph 1013.9mb 46f 33f
6:36 14 16 mph 1013.8mb 46f 33f
6:30 13 15 mph 1013.9mb 46f 33f
6:24 13 15 mph 1013.9mb 46f 33f
6:18 11 13 mph 1013.9mb 46f 33f
6:12 10 13 mph 1013.8mb 46f 33f
6:06 8 10 mph 1013.8mb 46f 32f
6:00 8 11 mph 1013.8mb - -
5:54 7 10 mph 1013.8mb 46f 32f
5:48 7 10 mph 1013.8mb 46f 33f
5:42 6 8 mph 1013.8mb 46f 33f
5:36 6 9 mph 1013.8mb 46f 32f
5:30 9 14 mph 1013.8mb 46f 32f
5:24 10 13 mph 1013.7mb 46f 33f
5:18 10 15 mph 1013.6mb 46f 33f
5:12 13 15 mph 1013.5mb 46f 33f
5:06 11 15 mph 1013.5mb 46f 33f
5:00 13 14 mph 1013.4mb 46f -
4:54 11 15 mph 1013.4mb 47f 33f
4:48 13 16 mph 1013.3mb 46f 33f
4:42 14 16 mph 1013.3mb 46f 33f
4:36 14 16 mph 1013.2mb 46f 33f
4:30 11 15 mph 1013.2mb 46f 33f
4:24 14 16 mph 1013.2mb 46f 33f
4:18 14 17 mph 1013.1mb 46f 33f
4:12 11 16 mph 1013.1mb 46f 33f
4:06 10 15 mph 1013.1mb 46f 33f
4:00 9 13 mph 1013.1mb 46f -
3:54 10 14 mph 1013mb 46f 33f
3:48 10 14 mph 1013mb 46f 33f
3:42 11 15 mph 1013mb 46f 33f
3:36 11 16 mph 1012.9mb 45f 33f
3:30 13 16 mph 1012.9mb 45f 33f
3:24 13 14 mph 1013mb 45f 33f
3:18 14 15 mph 1012.9mb 45f 34f
3:12 13 15 mph 1013mb 44f 34f
3:06 13 14 mph 1012.9mb 44f 34f
3:00 11 14 mph 1012.9mb 44f 34f
2:54 13 16 mph 1012.8mb 44f 34f
2:48 11 17 mph 1012.8mb 44f 34f
2:42 14 18 mph 1012.6mb 44f 34f
2:36 14 17 mph 1012.6mb 44f 34f
2:30 14 17 mph 1012.6mb 44f 34f
2:24 14 17 mph 1012.5mb 44f 34f
2:18 15 16 mph 1012.4mb 44f 34f
2:12 14 16 mph 1012.4mb 44f 34f
2:06 13 17 mph 1012.5mb 44f 34f
2:00 11 13 mph 1012.5mb 44f 34f
1:54 9 13 mph 1012.4mb 44f 34f
1:48 11 14 mph 1012.4mb 44f 34f
1:42 10 13 mph 1012.4mb 44f 34f
1:36 11 14 mph 1012.2mb 44f 34f
1:30 10 13 mph 1012.2mb 44f 34f
1:24 7 11 mph 1012.3mb 44f 34f
1:18 8 10 mph 1012.2mb 44f 34f
1:12 8 10 mph 1012.2mb 44f 35f
1:06 8 13 mph 1012.2mb 44f 35f
1:00 8 11 mph 1012.2mb 44f 34f
12:54 8 11 mph 1012.2mb 44f 35f
12:48 7 11 mph 1012.2mb 44f 35f
12:42 8 11 mph 1012.1mb - -
12:36 7 13 mph 1012.1mb - -
12:30 7 10 mph 1012.1mb 44f 35f
12:24 9 13 mph 1012.1mb 45f 35f
12:18 8 11 mph 1012mb 45f 35f
12:12 6 9 mph 1012mb 45f 35f
12:06 8 10 mph 1012mb 45f 35f
12:00 9 13 mph 1012mb 45f 35f
Do 12/08 11:54 7 10 mph 1012mb 45f 35f
11:48 7 10 mph 1012mb 45f 35f
11:42 7 10 mph 1012mb 45f 35f
11:36 6 10 mph 1012.1mb 45f 35f
11:30 8 11 mph 1012.2mb 45f 36f
11:24 7 10 mph 1012.2mb 45f 36f
11:18 8 10 mph 1012.2mb 45f 36f
11:12 8 10 mph 1012.2mb 45f 36f
11:06 7 10 mph 1012.2mb 45f 36f
11:00 6 11 mph 1012.2mb 45f 36f
10:54 7 10 mph 1012.1mb 45f 36f
10:48 7 10 mph 1012.2mb 45f 36f
10:42 8 14 mph 1012.2mb 45f 36f
10:36 7 14 mph 1012.2mb 45f 36f
10:30 7 11 mph 1012.1mb 45f 36f
10:24 6 8 mph 1012.1mb 45f 37f
10:18 7 11 mph 1012mb 45f 37f
10:12 7 13 mph 1011.9mb 45f 37f
10:06 10 15 mph 1011.8mb 45f 37f
10:00 10 16 mph 1011.7mb 45f 37f
9:54 10 14 mph 1011.7mb 45f 37f
9:48 9 15 mph 1011.6mb 45f 37f
9:42 11 15 mph 1011.6mb 45f 37f
9:36 9 17 mph 1011.6mb 45f 37f
9:30 10 14 mph 1011.6mb 45f 36f
9:24 8 11 mph 1011.6mb 45f 36f
9:18 8 10 mph 1011.5mb 45f 36f
9:12 7 8 mph 1011.6mb 45f 36f
9:06 7 9 mph 1011.6mb 45f 37f
9:00 7 9 mph 1011.5mb 45f 37f
8:54 7 9 mph 1011.5mb 45f 37f
8:48 6 8 mph 1011.5mb 45f 37f
8:42 6 8 mph 1011.5mb 45f 37f
8:36 6 7 mph 1011.5mb 46f 37f
8:30 5 7 mph 1011.5mb 46f 37f
8:24 5 7 mph 1011.4mb 45f 37f
8:18 6 7 mph - - -
8:12 6 7 mph 1011.4mb 45f 38f
8:06 5 7 mph 1011.4mb 45f 38f
8:00 6 8 mph 1011.3mb 46f 38f
7:54 6 8 mph 1011.4mb 46f 37f
7:48 6 8 mph 1011.3mb 46f 38f
7:42 6 9 mph 1011.2mb 46f 38f
7:36 8 9 mph 1011.2mb 46f 38f
7:30 7 8 mph 1011.1mb 46f 38f
7:24 6 8 mph 1011.1mb 46f 38f
7:18 7 10 mph 1011.1mb 46f 39f
7:12 9 10 mph 1011mb 46f 39f
7:06 8 10 mph 1011mb 46f 40f
7:00 9 11 mph 1011mb 46f 39f
6:54 10 13 mph 1011mb 46f 40f
6:48 9 11 mph - - -
6:42 11 14 mph 1011mb 45f 40f
6:36 9 10 mph 1011.1mb 45f 40f
6:30 10 11 mph 1011mb 45f 40f
6:24 9 11 mph 1010.9mb 45f 40f
6:18 9 11 mph 1010.8mb 45f 40f
6:12 9 10 mph 1010.8mb 45f 40f
6:06 8 9 mph 1010.7mb 45f 40f
6:00 8 9 mph 1010.7mb 45f -
5:54 7 8 mph 1010.6mb 45f 40f
5:48 6 8 mph - - -
5:42 7 9 mph 1010.6mb 46f 40f
5:36 7 8 mph 1010.6mb 46f 40f
5:30 6 8 mph 1010.6mb 46f 40f
5:24 6 7 mph 1010.5mb 46f 40f
5:18 5 6 mph - - -
5:12 5 7 mph 1010.4mb 46f 41f
5:06 6
mph
1010.4mb 46f 41f
5:00 5 7 mph 1010.3mb 46f 41f
4:54 5 7 mph 1010.3mb 46f 41f
4:48 5 7 mph 1010.2mb 46f 41f
4:42 6 7 mph 1010.1mb 46f 41f
4:36 6 7 mph 1010.1mb 46f 42f
4:30 6 8 mph 1010.2mb 46f 42f
4:24 6 8 mph 1010.2mb 46f 42f
4:18 5 8 mph 1010.1mb 46f 42f
4:12 6 8 mph 1010.2mb 46f 42f
4:06 6 8 mph 1010.1mb 46f 42f
4:00 6 8 mph 1010.1mb 46f 42f
3:54 6 8 mph 1010mb 45f 42f
3:48 6 9 mph 1010.1mb 45f 43f
3:42 8 10 mph 1010.1mb 45f 43f
3:36 7 11 mph 1009.9mb 45f 43f
3:30 10 14 mph 1009.9mb 45f 43f
3:24 7 13 mph 1009.9mb 45f 43f
3:18 7 10 mph 1009.9mb 45f 43f
3:12 7 10 mph 1009.8mb 45f 43f
3:06 8 10 mph 1009.7mb 45f 43f
3:00 8 13 mph 1009.7mb 45f 43f
2:54 7 10 mph 1009.7mb 45f 43f
2:48 8 11 mph 1009.6mb 45f 43f
2:42 8 10 mph 1009.7mb 45f 43f
2:36 9 13 mph 1009.6mb 45f 43f
2:30 10 13 mph 1009.6mb 45f -
2:24 9 13 mph 1009.6mb 45f 42f
2:18 8 13 mph 1009.6mb 45f 42f
2:12 9 11 mph 1009.6mb 45f 42f
2:06 7 13 mph 1009.6mb 45f 43f
2:00 6 9 mph 1009.6mb 45f 43f
1:54 8 10 mph 1009.5mb 45f 43f
1:48 8 13 mph 1009.6mb 45f 43f
1:42 7 11 mph 1009.5mb 45f 43f
1:36 8 11 mph 1009.5mb 45f 43f
1:30 10 14 mph 1009.6mb 45f 43f
1:24 6 8 mph 1009.7mb 45f 44f
1:18 6 10 mph 1009.7mb 45f 43f
1:12 7 13 mph 1009.7mb 45f 43f
1:06 9 15 mph 1009.8mb 45f 43f
1:00 9 15 mph 1009.7mb 45f 44f
12:54 11 14 mph 1009.6mb 45f 43f
12:48 10 13 mph 1009.8mb 45f 44f
12:42 10 11 mph 1009.8mb 45f 43f
12:36 9 11 mph 1009.9mb 45f 43f
12:30 10 11 mph 1010mb 45f 43f
12:24 10 13 mph 1010.2mb 45f 43f
12:18 10 13 mph 1010.3mb 45f 43f
12:12 8 10 mph 1010.3mb 45f 43f
12:06 6 7 mph 1010.4mb 45f 43f
12:00 6 7 mph 1010.5mb 45f 43f
11:54 6 7 mph 1010.7mb 45f 43f
11:48 7 8 mph 1010.8mb 45f 42f
11:42 7 8 mph 1011mb 45f 42f
11:36 8
mph
1011.2mb 45f 42f
11:30 7 8 mph 1011.4mb 45f 42f
11:24 7 8 mph 1011.6mb 45f 42f
11:18 7 10 mph 1011.7mb 45f 43f
11:12 8 9 mph 1012mb 45f 42f
11:06 9 10 mph 1012.1mb 45f 42f
11:00 8 10 mph 1012.2mb 45f 42f
10:54 9 10 mph 1012.3mb 45f 42f
10:48 7 9 mph 1012.5mb 45f 42f
10:42 8 10 mph 1012.7mb 45f 42f
10:36 8 9 mph 1012.9mb 45f 42f
10:30 8 10 mph 1013.1mb 45f 41f
10:24 8 9 mph 1013.2mb 45f 41f
10:18 7 8 mph 1013.3mb 45f 40f
10:12 8
mph
1013.4mb 45f 40f
10:06 7 8 mph 1013.5mb 45f 40f
10:00 6 7 mph 1013.4mb - -
9:54 6 8 mph 1013.6mb 45f 40f
9:48 7 8 mph 1013.7mb 45f 39f
9:42 6 8 mph 1013.6mb 45f 39f
9:36 7 8 mph 1013.8mb 45f 39f
9:30 7
mph
1013.9mb 45f 39f
9:24 6 7 mph 1013.7mb 45f 39f
9:18 6
mph
1013.8mb 45f 39f
9:12 5 6 mph 1013.8mb 45f 38f
9:06 6
mph
1013.9mb 45f 38f
9:00 5 6 mph 1014mb 45f 38f
8:54 6 7 mph 1014mb 45f 38f
8:48 6 7 mph 1014mb 45f 38f
8:42 7
mph
1014.1mb 45f 38f
8:36 7 8 mph 1014mb 45f 38f
8:30 7 8 mph 1014mb 45f 38f
8:24 6 7 mph 1013.9mb 45f 38f
8:18 6 7 mph 1014mb 45f 38f
8:12 6 7 mph 1014.1mb 45f 38f
8:06 6 7 mph 1014mb 45f 37f
8:00 6 7 mph 1014mb - -
7:54 6 7 mph 1014mb 45f 38f
7:48 6 7 mph 1014.1mb 45f 37f
7:42 6 7 mph 1014.1mb 45f 37f
7:36 5
mph
1014mb 45f 37f
7:30 5
mph
1014.1mb 45f 37f
7:24 5 6 mph 1014.2mb 45f 37f
7:18 5 6 mph 1014.4mb 45f 37f
7:12 5
mph
1014.4mb 45f 37f
7:06 5 6 mph 1014.4mb 45f 37f
7:00 5 6 mph 1014.4mb 45f 37f
6:54 3 5 mph 1014.3mb 45f 38f
6:48 5
mph
1014.5mb 45f 38f
6:42 3 5 mph 1014.5mb 45f 38f
6:36 5
mph
1014.4mb 45f 38f
6:30 5 6 mph 1014.4mb 45f 38f
6:24 5 6 mph 1014.4mb 45f 38f
6:18 6
mph
1014.4mb 45f 38f
6:12 6
mph
1014.5mb 45f 39f
6:06 5 6 mph 1014.4mb 45f 39f
6:00 3 5 mph 1014.4mb 45f 39f
5:54 5
mph
1014.4mb 45f 38f
5:48 5
mph
1014.4mb 45f 38f
5:42 3 5 mph 1014.4mb 45f 38f
5:36 3
mph
1014.5mb 45f 38f
5:30 3 5 mph 1014.6mb 45f 38f
5:24 3
mph
1014.7mb 45f 38f
5:18 2 3 mph 1014.7mb 45f 38f
5:12 2 3 mph 1014.8mb 45f 38f
5:06 2 3 mph 1014.8mb 45f 38f
5:00 3
mph
1014.9mb 45f 38f
4:54 3
mph
1014.9mb 45f 38f
4:48 3
mph
1014.9mb 45f 38f
4:42 3 5 mph 1015mb 45f 37f
4:36 5 6 mph 1015.1mb 46f 37f
4:30 6
mph
1015.1mb 46f 37f
4:24 6
mph
1015.1mb 46f 37f
4:18 5 6 mph 1015mb 46f 37f
4:12 6
mph
1015mb 46f 37f
4:06 6
mph
1014.8mb 46f 38f
4:00 6
mph
1014.7mb 46f 38f
3:54 6
mph
1014.7mb 46f 37f
3:48 6
mph
1014.8mb 46f 38f
3:42 6
mph
1014.9mb 46f 38f
3:36 3 6 mph 1014.9mb 46f 38f
3:30 6 7 mph 1014.8mb 46f 38f
3:24 6 7 mph 1014.8mb 46f 38f
3:18 6 7 mph 1014.7mb 45f 38f
3:12 6 7 mph 1014.8mb 46f 38f
3:06 7 8 mph 1014.9mb 45f 39f
3:00 7 8 mph 1014.9mb 45f 39f
2:54 8 9 mph 1015mb 45f 39f
2:48 9
mph
1015.2mb 45f 39f
2:42 8 9 mph 1015.2mb 45f 39f
2:36 7 8 mph 1015.2mb 45f 39f
2:30 7
mph
1015.3mb 45f 39f
2:24 6 7 mph 1015.2mb 45f 39f
2:18 6
mph
1015.3mb 45f 39f
2:12 5 6 mph 1015.3mb 45f 40f
2:06 5 6 mph 1015.2mb 45f 40f
2:00 5 6 mph 1015.2mb 45f 40f
1:54 5 6 mph 1015.3mb 45f 40f
1:48 5 6 mph 1015.4mb 45f 40f
1:42 5 6 mph 1015.4mb 45f -
1:36 3 5 mph 1015.4mb 45f -
1:30 3 5 mph 1015.5mb 45f 40f
1:24 3 5 mph 1015.4mb 45f 40f
1:18 1 3 mph 1015.5mb 45f 40f
1:12 3
mph
1015.5mb 45f 40f
1:06 3
mph
1015.6mb 45f 40f
1:00 2 6 mph 1015.6mb 45f 40f
12:54 3 7 mph 1015.7mb 45f 40f
12:48 3 6 mph 1015.9mb 45f 39f
12:42 6 7 mph 1015.9mb 45f -
12:36 7
mph
1015.8mb 45f -
12:30 6 7 mph 1015.7mb 45f 39f
12:24 6
mph
1015.5mb 45f 39f
12:18 6 7 mph 1015.7mb 45f 39f
12:12 6
mph
1015.6mb 45f 40f
12:06 6
mph
1015.4mb 45f 40f
12:00 6
mph
1015.5mb 45f 40f
Mi 12/07 11:54 5 6 mph 1015.4mb 45f 40f
11:48 6 7 mph 1015.4mb 45f 40f
11:42 6
mph
1015.5mb 45f 41f
11:36 5 6 mph 1015.6mb 45f 40f
11:30 5 6 mph 1015.6mb 45f 41f
11:24 5 6 mph 1015.7mb 45f 41f
11:18 5 6 mph 1015.7mb 45f 41f
11:12 3 6 mph 1015.9mb 45f 41f
11:06 5 6 mph 1016mb 45f 41f
11:00 5 6 mph 1016mb 45f 41f
10:54 3 5 mph 1016mb 45f 41f
10:48 3 5 mph 1016.2mb 45f 41f
10:42 3 6 mph 1016.2mb 45f 42f
10:36 5
mph
1016.3mb 45f 42f
10:30 5 6 mph 1016.4mb 45f 42f
10:24 5 6 mph 1016.4mb 45f 42f
10:18 3 6 mph 1016.4mb 45f 42f
10:12 5 7 mph 1016.4mb 45f 42f
10:06 3 6 mph 1016.3mb 45f 42f
10:00 3 5 mph 1016.2mb 45f 43f
9:54 2 3 mph 1016.1mb 45f 42f
9:48 2 5 mph 1016mb 45f 42f
9:42 5 7 mph 1016.1mb 45f 42f
9:36 6 7 mph 1016.2mb 45f 43f
9:30 5 6 mph 1016.4mb 45f 43f
9:24 5 6 mph 1016.4mb 45f 43f
9:18 2 3 mph 1016.4mb 45f 42f
9:12 2 3 mph 1016.5mb 45f 42f
9:06 2 3 mph 1016.6mb 45f 43f
9:00 3
mph
1016.5mb 45f 42f
8:54 3 5 mph 1016.5mb 45f 43f
8:48 3 5 mph 1016.6mb 45f 42f
8:42 3
mph
1016.6mb 45f 42f
8:36 3
mph
1016.6mb 45f 42f
8:30 2 5 mph 1016.6mb 45f 42f
8:24 2 5 mph 1016.6mb 45f 42f
8:18 1 2 mph - - -
8:12 2
mph
1016.8mb 45f 42f
8:06 2 5 mph 1016.7mb 45f 42f
8:00 3
mph
1016.7mb 45f 43f
7:54 1 2 mph 1016.5mb 45f 42f
7:48  -  1 mph - - -
7:42 1 2 mph 1016.4mb 45f 43f
7:36 2 3 mph 1016.6mb 45f 43f
7:30 2 3 mph 1016.7mb 45f 43f
7:24 2 3 mph 1016.7mb 45f 43f
7:18 3
mph
1016.7mb - -
7:12 2 3 mph 1016.7mb 45f 43f
7:06 2 3 mph 1016.7mb 45f 43f
7:00 3
mph
1016.6mb 45f 43f
6:54 3
mph
1016.7mb 45f 43f
6:48 3
mph
1016.7mb - -
6:42 2 3 mph 1016.7mb 46f 43f
6:36 2
mph
1016.7mb 46f 43f
6:30 2
mph
1016.7mb 46f 43f
6:24 2
mph
1016.6mb 45f 43f
6:18 1 3 mph 1016.6mb 46f 43f
6:12 3 6 mph 1016.6mb 45f 43f
6:06 6
mph
1016.7mb 45f 43f
6:00 5 6 mph 1016.5mb 45f 43f
5:54 5
mph
1016.5mb 45f 43f
5:48 3 5 mph 1016.3mb - -
5:42 3 5 mph 1016.3mb 45f 43f
5:36 3
mph
1016.2mb 46f 43f
5:30 2
mph
1016.2mb 46f 43f
5:24  -  1 mph 1016mb 46f 43f
5:18  -  1 mph 1015.8mb 46f 43f
5:12  -  1 mph 1015.7mb 46f 42f
5:06  -  1 mph 1015.7mb 46f 42f
5:00  -  1 mph 1015.7mb 46f 43f
4:54  -  1 mph 1015.6mb 46f 42f
4:48  -  mph - - -
4:42  -  mph 1015.5mb 46f 42f
4:36  -  1 mph 1015.4mb 46f 42f
4:30  -  mph 1015.4mb 46f 42f
4:24  -  mph 1015.3mb 46f 42f
4:18  -  mph 1015.3mb 46f 42f
4:12  -  2 mph 1015.3mb 46f 42f
4:06 2
mph
1015.2mb 46f 42f
4:00  -  1 mph 1015.1mb 46f 42f
3:54  -  1 mph 1015.2mb 46f 42f
3:48  -  mph 1015.1mb 46f 42f
3:42  -  1 mph 1015.1mb 46f 42f
3:36  -  1 mph 1015mb 46f 42f
3:30 1
mph
1014.9mb - -
3:24 1 2 mph 1014.8mb 46f 42f
3:18 2
mph
1014.6mb 46f 42f
3:12 1 2 mph 1014.6mb 46f 42f
3:06  -  2 mph 1014.6mb 46f 42f
3:00 1 3 mph 1014.6mb 46f 42f
2:54 3 5 mph 1014.5mb 46f 42f
2:48 2 5 mph 1014.6mb 46f 42f
2:42 3 5 mph 1014.4mb 46f 42f
2:36 3 6 mph 1014.4mb 46f 42f
2:30 5 6 mph 1014.2mb - -
2:24 5 6 mph 1014.1mb 45f 42f
2:18 6
mph
1013.9mb 45f 42f
2:12 5
mph
1014mb 45f 42f
2:06 3 5 mph 1014.1mb 45f 41f
2:00 5
mph
1014.2mb 45f 41f
1:54 3
mph
1014.2mb 45f 41f
1:48 3 5 mph 1014.2mb 45f 41f
1:42 2 3 mph 1014.2mb 45f 41f
1:36 2 3 mph 1014.1mb 45f 41f
1:30 2 3 mph 1014.1mb 45f -
1:24 3 5 mph 1014.2mb 45f 41f
1:18 5 6 mph 1014.1mb 45f 41f
1:12 3 6 mph 1014.1mb 45f 41f
1:06 6 7 mph 1014mb 45f 41f
1:00 6 7 mph 1014.1mb 45f 41f
12:54 6 7 mph 1014.2mb 45f 40f
12:48 6 8 mph 1014.3mb 45f 41f
12:42 6 7 mph 1014.3mb 45f 40f
12:36 6 7 mph 1014.4mb 45f 40f
12:30 5 7 mph 1014.3mb 45f 40f
12:24 7 9 mph 1014.4mb 45f 40f
12:18 5 8 mph 1014.4mb 45f 40f
12:12 5 7 mph 1014.4mb 45f 40f
12:06 3 6 mph 1014.5mb 45f 40f
12:00 5 7 mph 1014.7mb 45f 40f
11:54 3 6 mph 1014.9mb 45f 40f
11:48 3 7 mph 1015mb 45f 40f
11:42 5 7 mph 1015.1mb 45f 40f
11:36 5 7 mph 1015.1mb 45f 40f
11:30 6 8 mph 1015.1mb 45f 40f
11:24 6
mph
1015.2mb 45f 40f
11:18 6 7 mph 1015.4mb 45f 40f
11:12 6 7 mph 1015.4mb 45f 40f
11:06 6 7 mph 1015.3mb 45f 40f
11:00 6 8 mph 1015.3mb 45f 40f
10:54 7 8 mph 1015.4mb 45f 40f
10:48 7 9 mph 1015.6mb 45f 40f
10:42 7 8 mph 1015.8mb 45f 40f
10:36 8 10 mph 1015.8mb 45f 39f
10:30 8 9 mph 1015.8mb 45f 39f
10:24 7 8 mph 1016mb 45f 39f
10:18 8 9 mph 1016mb 45f 39f
10:12 8 9 mph 1016mb 45f 39f
10:06 6 8 mph 1016.1mb 45f 39f
10:00 7 8 mph 1016.1mb 45f 39f
9:54 7 9 mph 1015.9mb 45f 39f
9:48 8 9 mph 1015.7mb 45f 39f
9:42 8 9 mph 1015.7mb 45f 39f
9:36 8 10 mph 1015.5mb 45f 39f
9:30 9 11 mph 1015.4mb 45f 39f
9:24 9 11 mph 1015.2mb 45f 39f
9:18 9 11 mph 1015.3mb 45f 39f
9:12 9 11 mph 1015.2mb 45f 39f
9:06 9 11 mph 1015.1mb 45f 39f
9:00 8 10 mph 1015.1mb 45f 39f
8:54 8 10 mph 1015.1mb 45f 39f
8:48 9 11 mph 1015.1mb 45f 38f
8:42 9 11 mph 1015mb 45f 38f
8:36 8 10 mph 1015mb 45f 38f
8:30 9 11 mph 1014.9mb 45f 38f
8:24 8 10 mph 1014.8mb 45f 38f
8:18 8 10 mph 1014.8mb 45f 38f
8:12 8 9 mph 1014.9mb 45f 38f
8:06 7 9 mph 1014.9mb 45f 38f
8:00 7 9 mph 1014.9mb 45f 38f
7:54 8 9 mph 1014.8mb 45f 38f
7:48 7 9 mph 1014.8mb 45f 38f
7:42 7 9 mph 1014.8mb 45f 38f
7:36 5 8 mph 1014.9mb 45f 38f
7:30 6 9 mph 1014.9mb 45f 38f
7:24 6 8 mph 1014.8mb 45f 38f
7:18 6 8 mph 1014.6mb 45f 38f
7:12 6 8 mph 1014.4mb 45f 38f
7:06 5 8 mph 1014.4mb 45f 39f
7:00 8 9 mph 1014.3mb 45f 39f
6:54 7 9 mph 1014.3mb 45f 39f
6:48 7 9 mph 1014.1mb 45f 39f
6:42 9 10 mph 1013.9mb 45f 39f
6:36 9 11 mph 1013.7mb 45f 39f
6:30 9 11 mph 1013.5mb 45f 39f
6:24 11 14 mph 1013.2mb 45f 39f
6:18 11 14 mph 1013.1mb 45f 39f
6:12 13 14 mph 1013mb 45f 39f
6:06 11 15 mph 1013.1mb 45f 39f
6:00 13 14 mph 1013.2mb 45f 38f
5:54 11 15 mph 1013.3mb 45f 39f
5:48 11 16 mph 1013.4mb 45f 38f
5:42 11 14 mph 1013.4mb 45f 39f
5:36 11 14 mph 1013.5mb 45f 38f
5:30 13 15 mph 1013.4mb 45f 38f
5:24 13 14 mph 1013.5mb 46f 39f
5:18 11 14 mph 1013.7mb 45f 38f
5:12 13 14 mph 1013.7mb 45f 38f
5:06 10 14 mph 1013.6mb 45f 39f
5:00 10 15 mph 1013.6mb 46f 39f
4:54 14 17 mph 1013.1mb 46f 39f
4:48 15 18 mph 1012.6mb 45f 39f
4:42 16 20 mph 1012.3mb 45f 39f
4:36 17 21 mph 1012.1mb 45f 39f
4:30 16 21 mph 1012.2mb 45f 39f
4:24 16 21 mph 1012.1mb 45f 39f
4:18 18 22 mph 1011.9mb 45f 39f
4:12 16 18 mph 1012mb 45f 39f
4:06 17 20 mph 1012mb 45f 39f
4:00 17 23 mph 1012mb 45f 39f
3:54 18 21 mph 1012mb 45f 39f
3:48 17 21 mph 1012.3mb 45f 39f
3:42 16 22 mph 1012.2mb 45f 39f
3:36 21 22 mph 1012.1mb 45f 39f
3:30 16 20 mph 1012.1mb 45f 39f
3:24 16 21 mph 1012.3mb 45f 39f
3:18 16 18 mph 1012.4mb 45f 39f
3:12 14 18 mph 1012.5mb 45f 39f
3:06 15 18 mph 1012.6mb 45f 39f
3:00 16 20 mph 1012.9mb 45f 39f
2:54 15 17 mph 1012.9mb 45f 39f
2:48 14 16 mph 1013.1mb 45f 39f
2:42 13 16 mph 1013.4mb 46f 39f
2:36 13 17 mph 1013.6mb 46f 39f
2:30 13 16 mph 1013.6mb 46f 39f
2:24 13 16 mph 1013.6mb 46f 39f
2:18 14 17 mph 1013.5mb 46f 39f
2:12 14 17 mph 1013.5mb 46f 39f
2:06 15 18 mph 1013.4mb 46f 39f
2:00 17 20 mph 1013.5mb 46f 39f
1:54 16 18 mph 1013.5mb 46f 39f
1:48 15 17 mph 1013.5mb 46f 39f
1:42 15 18 mph 1013.3mb 46f 40f
1:36 16 20 mph 1013mb 46f 39f
1:30 17 21 mph 1013.1mb 46f 40f
1:24 16 20 mph 1013.2mb 46f 40f
1:18 15 17 mph 1013.4mb 46f 40f
1:12 15 17 mph 1013.3mb 46f 40f
1:06 15 18 mph 1013.4mb 46f 40f
1:00 14 17 mph 1013.4mb 46f -
12:54 15 17 mph 1013.7mb 46f 40f
12:48 14 17 mph 1013.7mb 46f 40f
12:42 14 18 mph 1013.5mb 46f 41f
12:36 13 15 mph 1013.4mb 46f 41f
12:30 14 16 mph 1013.5mb 46f 41f
12:24 14 17 mph 1013.4mb 46f 41f
12:18 14 17 mph 1013.3mb 46f 41f
12:12 15 18 mph 1013.4mb 46f 41f
12:06 15 18 mph 1013.4mb 46f 41f
12:00 16 20 mph 1013.3mb 46f 41f
Di 12/06 11:54 17 20 mph 1013.4mb 46f 41f
11:48 17 20 mph 1013.6mb 46f 41f
11:42 16 17 mph 1014mb 46f 41f
11:36 14 15 mph 1014.3mb 46f 42f
11:30 13 16 mph 1014.6mb 46f 41f
11:24 13 14 mph 1014.8mb 46f 41f
11:18 13
mph
1015mb 46f 42f
11:12 11 13 mph 1015.2mb 46f 42f
11:06 10 13 mph 1015.3mb 46f 41f
11:00 10 11 mph 1015.3mb 46f 41f
10:54 10 13 mph 1015.3mb 46f 41f
10:48 10 13 mph 1015.5mb 46f 41f
10:42 10 11 mph 1015.6mb 46f 41f
10:36 9 13 mph 1015.6mb 46f 41f
10:30 9 11 mph 1015.7mb 46f -
10:24 10 13 mph 1015.7mb 46f 41f
10:18 9 11 mph 1015.7mb 46f 41f
10:12 9 11 mph 1015.6mb 46f 41f
10:06 11 13 mph 1015.5mb 46f 41f
10:00 10 14 mph 1015.6mb 46f 41f
9:54 11 14 mph 1015.6mb 46f 41f
9:48 11 14 mph 1015.6mb 46f 41f
9:12 10 11 mph 1016.1mb 46f 42f
9:06 10 11 mph 1016.1mb 46f 42f
9:00 9 10 mph 1016.2mb 46f 42f
8:54 8 9 mph 1016.4mb 46f 42f
8:48 8 9 mph - - -
7:54 7 8 mph 1016.6mb 46f 41f
7:48 7 8 mph - - -
7:30 8 9 mph 1016.4mb 46f 41f
7:24 8 10 mph 1016.4mb 46f 41f
7:18 8 9 mph - - -
7:12 9 10 mph 1016.2mb 46f 41f
7:06 8 10 mph 1016.4mb 46f 41f
7:00 8 10 mph 1016.4mb 46f 42f
6:54 8 9 mph 1016.4mb 46f 41f
6:48 9 10 mph 1016.5mb - -
6:42 9 10 mph 1016.5mb 46f 41f
6:36 9 11 mph 1016.3mb 46f 41f
6:30 9 10 mph 1016.5mb 46f 41f
6:24 10 13 mph 1016.4mb 46f 41f
6:18 11 14 mph - - -
6:12 11 14 mph 1016.4mb 46f 42f
6:06 13 15 mph 1016.2mb 46f 42f
6:00 13 15 mph 1016.3mb 46f 42f
5:54 11 15 mph 1016.5mb 46f 42f
5:48 14 15 mph 1016.4mb - -
5:42 13 15 mph 1016.4mb 46f 42f
5:36 14 15 mph 1016.3mb 46f 42f
5:30 14 17 mph 1016.2mb 46f 42f
5:24 14 15 mph 1016.3mb 46f 42f
5:18 14 17 mph - - -
5:12 13 16 mph 1016.2mb 46f 42f
5:06 15 16 mph 1016.1mb 46f 42f
5:00 14 16 mph 1016.2mb 46f 42f
4:54 15 16 mph 1016mb 46f 43f
4:48 11 13 mph 1015.9mb - -
4:42 8 10 mph 1016mb 46f 44f
4:36 9 10 mph 1016mb 46f 44f
4:30 8 9 mph 1016mb 46f 44f
4:24 8 9 mph 1016.1mb 46f 44f
4:18 8 10 mph 1016.1mb 46f 44f
4:12 8 9 mph 1016mb 46f 44f
4:06 8 10 mph 1016.2mb 46f 44f
4:00 8 10 mph 1016.2mb 46f 44f
3:54 9 11 mph 1016.2mb 46f 44f
3:48 10 11 mph 1016.2mb 46f 44f
3:42 9 10 mph 1016.4mb 46f 44f
3:36 9 10 mph 1016.7mb 46f 44f
3:30 9 10 mph 1016.9mb 46f 44f
3:24 7 8 mph 1017.1mb 46f 44f
3:18 7 8 mph 1017.1mb 46f 44f
3:12 7 8 mph 1017.2mb 46f 43f
3:06 7 8 mph 1017.3mb 46f 44f
3:00 7 8 mph 1017.4mb 46f 43f
2:54 6 7 mph 1017.6mb 46f 43f
2:48 5 6 mph 1017.8mb 46f 43f
2:42 5 7 mph 1017.8mb 46f 43f
2:36 6 7 mph 1017.8mb 46f 43f
2:30 7 8 mph 1017.9mb 46f 43f
2:24 7 9 mph 1017.9mb 46f 43f
2:18 9 10 mph 1017.6mb 46f 43f
2:12 9 10 mph 1017.5mb 46f 43f
2:06 7 9 mph 1017.7mb 46f 43f
2:00 8 9 mph 1017.8mb 45f 43f
1:54 6 7 mph 1018mb 45f 43f
1:48 6 7 mph 1018.2mb 45f 43f
1:30 5 7 mph 1018.3mb 45f 43f
1:24 6 8 mph 1018.3mb 45f 43f
1:18 7 8 mph 1018.3mb 45f 43f
1:12 7 9 mph 1018.3mb 45f 43f
1:06 8 9 mph 1018.3mb 45f 43f
1:00 7 8 mph 1018.4mb 45f 43f
12:54 6 9 mph 1018.6mb 45f 43f
12:48 5 8 mph 1018.6mb 45f 43f
12:30 8 9 mph 1018.6mb 45f 43f
12:24 8 10 mph 1018.6mb 45f 43f
12:18 9 11 mph 1018.8mb 45f 43f
12:12 8 11 mph 1019mb 45f 43f
12:06 9 11 mph 1019mb 45f 43f
12:00 9 13 mph 1019mb 45f 43f
11:54 10 14 mph 1018.9mb 45f 42f
11:48 11 14 mph 1019.1mb 45f 42f
11:42 11 14 mph 1019mb 45f 42f
11:36 14 16 mph 1019.3mb 45f 42f
11:30 13 15 mph - - -
11:24 13 17 mph 1019.4mb 45f 43f
11:18 9 15 mph 1019.6mb 45f 42f
11:12 11 14 mph 1019.7mb 46f 42f
11:06 10 14 mph 1020mb 46f 42f
11:00 9 13 mph 1020.1mb 46f 42f
10:54 10 13 mph 1020.1mb 46f 42f
10:48 10 15 mph 1020.2mb 46f 42f
10:42 11 15 mph 1020.3mb 46f 42f
10:36 13 15 mph 1020.3mb 46f 42f
10:30 14 15 mph 1020.3mb 46f 42f
10:24 13 14 mph 1020.4mb 46f 41f
10:18 11 15 mph 1020.4mb 46f 41f
10:12 11 14 mph 1020.4mb 46f 41f
10:06 11 15 mph 1020.5mb 46f 41f
10:00 11 14 mph 1020.5mb 46f 40f
9:54 13 15 mph 1020.5mb 46f 40f
9:48 13 14 mph 1020.5mb 46f 40f
9:42 11 13 mph 1020.5mb 46f 40f
9:36 10 13 mph 1020.5mb 46f 40f
9:30 10 11 mph 1020.6mb 46f 40f
9:24 9 11 mph 1020.5mb 46f 40f
9:18 8 10 mph 1020.7mb 46f 40f
9:12 8 10 mph 1020.6mb 46f 39f
9:06 7 8 mph 1020.5mb 46f 39f
9:00 7 8 mph 1020.4mb 46f 39f
8:54 5 6 mph 1020.4mb 46f 39f
8:48 3 5 mph 1020.3mb 46f 39f